METAR Data
IDs: Format: Raw Decoded Include TAF

Data at: 1821 UTC 31 Jul 2021

METAR for:KIAH (Houston/Bush Intl, TX, US)
Text:KIAH 311753Z 20003KT 10SM SCT040 34/22 A3005 RMK AO2 SLP174 T03440222 10344 20250 58010
Temperature: 34.4°C ( 94°F)
Dewpoint: 22.2°C ( 72°F) [RH = 49%]
Pressure (altimeter):30.05 inches Hg (1017.7 mb) [Sea level pressure: 1017.4 mb]
Winds:from the SSW (200 degrees) at 3 MPH (3 knots; 1.5 m/s)
Visibility:10 or more sm (16+ km)
Ceiling:at least 12,000 feet AGL
Clouds: scattered clouds at 4000 feet AGL

METAR for:KHOU (Houston/Hobby Arpt, TX, US)
Text:KHOU 311753Z 30006KT 10SM SCT038 BKN250 34/23 A3004 RMK AO2 SLP177 T03440228 10344 20272 58010
Temperature: 34.4°C ( 94°F)
Dewpoint: 22.8°C ( 73°F) [RH = 51%]
Pressure (altimeter):30.04 inches Hg (1017.4 mb) [Sea level pressure: 1017.7 mb]
Winds:from the WNW (300 degrees) at 7 MPH (6 knots; 3.1 m/s)
Visibility:10 or more sm (16+ km)
Ceiling:25000 feet AGL
Clouds: scattered clouds at 3800 feet AGL, broken clouds at 25000 feet AGL

METAR for:KGLS (Galveston/Scholes In, TX, US)
Text:KGLS 311752Z 18006KT 10SM OVC027 32/24 A3007 RMK AO2 SLP183 60000 T03170244 10339 20267 58002
Temperature: 31.7°C ( 89°F)
Dewpoint: 24.4°C ( 76°F) [RH = 65%]
Pressure (altimeter):30.07 inches Hg (1018.4 mb) [Sea level pressure: 1018.3 mb]
Winds:from the S (180 degrees) at 7 MPH (6 knots; 3.1 m/s)
Visibility:10 or more sm (16+ km)
Ceiling:2700 feet AGL
Clouds: overcast cloud deck at 2700 feet AGL

METAR for:KLVJ (Houston/Pearland Rgn, TX, US)
Text:KLVJ 311753Z AUTO 22003KT 10SM CLR 33/23 A3006 RMK AO2 LTG DSNT SW SLP179 T03330233 10333 20256 58009
Temperature: 33.3°C ( 92°F)
Dewpoint: 23.3°C ( 74°F) [RH = 56%]
Pressure (altimeter):30.06 inches Hg (1018.0 mb) [Sea level pressure: 1017.9 mb]
Winds:from the SW (220 degrees) at 3 MPH (3 knots; 1.5 m/s)
Visibility:10 or more sm (16+ km)
Ceiling:at least 12,000 feet AGL
Clouds:sky clear below 12,000 feet AGL
QC Flag:automated observation with no human augmentation

METAR for:KSGR (Houston/Sugar Land R, TX, US)
Text:KSGR 311753Z VRB03KT 10SM CLR 34/23 A3005 RMK AO2 LTG DSNT S SLP175 T03440228 10350 20256 58010
Temperature: 34.4°C ( 94°F)
Dewpoint: 22.8°C ( 73°F) [RH = 51%]
Pressure (altimeter):30.05 inches Hg (1017.7 mb) [Sea level pressure: 1017.5 mb]
Winds:variable direction winds at 3 MPH (3 knots; 1.5 m/s)
Visibility:10 or more sm (16+ km)
Ceiling:at least 12,000 feet AGL
Clouds:sky clear below 12,000 feet AGL

METAR for:KDWH (Houston/Hooks Mem, TX, US)
Text:KDWH 311753Z VRB03KT 10SM FEW037 FEW046 33/24 A3005 RMK AO2 SLP175 T03330239 10339 20250 58010
Temperature: 33.3°C ( 92°F)
Dewpoint: 23.9°C ( 75°F) [RH = 58%]
Pressure (altimeter):30.05 inches Hg (1017.7 mb) [Sea level pressure: 1017.5 mb]
Winds:variable direction winds at 3 MPH (3 knots; 1.5 m/s)
Visibility:10 or more sm (16+ km)
Ceiling:at least 12,000 feet AGL
Clouds: few clouds at 3700 feet AGL, few clouds at 4600 feet AGL

METAR for:KCLL (College Station/East, TX, US)
Text:KCLL 311753Z VRB04KT 10SM FEW038 33/23 A3005 RMK AO2 SLP171 T03330228 10333 20250 58012
Temperature: 33.3°C ( 92°F)
Dewpoint: 22.8°C ( 73°F) [RH = 54%]
Pressure (altimeter):30.05 inches Hg (1017.7 mb) [Sea level pressure: 1017.1 mb]
Winds:variable direction winds at 5 MPH (4 knots; 2.1 m/s)
Visibility:10 or more sm (16+ km)
Ceiling:at least 12,000 feet AGL
Clouds: few clouds at 3800 feet AGL

METAR for:KUTS (Huntsville Muni, TX, US)
Text:KUTS 311753Z AUTO VRB03KT 10SM SCT039 34/22 A3007 RMK AO2 SLP175 T03390222 10344 20256 58009
Temperature: 33.9°C ( 93°F)
Dewpoint: 22.2°C ( 72°F) [RH = 51%]
Pressure (altimeter):30.07 inches Hg (1018.4 mb) [Sea level pressure: 1017.5 mb]
Winds:variable direction winds at 3 MPH (3 knots; 1.5 m/s)
Visibility:10 or more sm (16+ km)
Ceiling:at least 12,000 feet AGL
Clouds: scattered clouds at 3900 feet AGL
QC Flag:automated observation with no human augmentation

METAR for:KCXO (Conroe/Executive Arp, TX, US)
Text:KCXO 311753Z 02003KT 10SM FEW038 34/23 A3006 RMK AO2 SLP176 T03390233 10339 20228 58009
Temperature: 33.9°C ( 93°F)
Dewpoint: 23.3°C ( 74°F) [RH = 54%]
Pressure (altimeter):30.06 inches Hg (1018.0 mb) [Sea level pressure: 1017.6 mb]
Winds:from the NNE (20 degrees) at 3 MPH (3 knots; 1.5 m/s)
Visibility:10 or more sm (16+ km)
Ceiling:at least 12,000 feet AGL
Clouds: few clouds at 3800 feet AGL

METAR for:KLBX (Angleton/Texas Gulf, TX, US)
Text:KLBX 311808Z AUTO 29007KT 3SM +RA BKN023 BKN047 OVC065 26/23 A3007 RMK AO2 LTG DSNT W TSE05 P0043 T02610233
Temperature: 26.1°C ( 79°F)
Dewpoint: 23.3°C ( 74°F) [RH = 85%]
Pressure (altimeter):30.07 inches Hg (1018.4 mb)
Winds:from the WNW (290 degrees) at 8 MPH (7 knots; 3.6 m/s)
Visibility: 3 sm ( 5 km)
Ceiling:2300 feet AGL
Clouds: broken clouds at 2300 feet AGL, broken clouds at 4700 feet AGL, overcast cloud deck at 6500 feet AGL
Weather:+RA (heavy rain)
QC Flag:automated observation with no human augmentation

METAR for:KPSX (Palacios Muni, TX, US)
Text:KPSX 311753Z AUTO 18008KT 10SM -RA SCT042 BKN060 32/24 A3006 RMK AO2 SLP178 P0000 60000 T03220239 10333 20267 58004
Temperature: 32.2°C ( 90°F)
Dewpoint: 23.9°C ( 75°F) [RH = 62%]
Pressure (altimeter):30.06 inches Hg (1018.0 mb) [Sea level pressure: 1017.8 mb]
Winds:from the S (180 degrees) at 9 MPH (8 knots; 4.1 m/s)
Visibility:10 or more sm (16+ km)
Ceiling:6000 feet AGL
Clouds: scattered clouds at 4200 feet AGL, broken clouds at 6000 feet AGL
Weather:-RA (light rain)
QC Flag:automated observation with no human augmentation